sensor_id;sensor_type;location;lat;lon;timestamp;P1;durP1;ratioP1;P2;durP2;ratioP2
27869;SDS011;15225;50.730;4.244;2023-08-31T18:27:37;14.48;;;5.63;;
27869;SDS011;15225;50.730;4.244;2023-08-31T18:30:03;16.42;;;6.68;;
27869;SDS011;15225;50.730;4.244;2023-08-31T18:32:29;16.10;;;6.80;;
27869;SDS011;15225;50.730;4.244;2023-08-31T18:34:56;16.95;;;6.57;;
27869;SDS011;15225;50.730;4.244;2023-08-31T18:37:22;13.98;;;5.53;;
27869;SDS011;15225;50.730;4.244;2023-08-31T18:39:48;11.45;;;6.13;;
27869;SDS011;15225;50.730;4.244;2023-08-31T18:42:14;40.38;;;7.25;;
27869;SDS011;15225;50.730;4.244;2023-08-31T18:44:42;78.80;;;11.32;;
27869;SDS011;15225;50.730;4.244;2023-08-31T18:47:07;28.58;;;7.18;;
27869;SDS011;15225;50.730;4.244;2023-08-31T18:49:33;15.20;;;5.50;;
27869;SDS011;15225;50.730;4.244;2023-08-31T18:51:59;11.43;;;4.60;;
27869;SDS011;15225;50.730;4.244;2023-08-31T18:54:25;8.50;;;4.60;;
27869;SDS011;15225;50.730;4.244;2023-08-31T18:56:50;13.57;;;5.53;;
27869;SDS011;15225;50.730;4.244;2023-08-31T18:59:16;16.63;;;4.72;;
27869;SDS011;15225;50.730;4.244;2023-08-31T19:01:42;11.65;;;4.55;;
27869;SDS011;15225;50.730;4.244;2023-08-31T19:04:07;13.57;;;4.70;;
27869;SDS011;15225;50.730;4.244;2023-08-31T19:06:33;12.32;;;5.10;;
27869;SDS011;15225;50.730;4.244;2023-08-31T19:09:02;11.95;;;4.15;;
27869;SDS011;15225;50.730;4.244;2023-08-31T19:11:28;6.53;;;3.60;;
27869;SDS011;15225;50.730;4.244;2023-08-31T19:13:54;12.77;;;4.45;;
27869;SDS011;15225;50.730;4.244;2023-08-31T19:16:20;10.50;;;3.88;;
27869;SDS011;15225;50.730;4.244;2023-08-31T19:18:46;10.63;;;3.85;;
27869;SDS011;15225;50.730;4.244;2023-08-31T19:21:13;12.70;;;4.50;;
27869;SDS011;15225;50.730;4.244;2023-08-31T19:23:41;9.48;;;4.20;;
27869;SDS011;15225;50.730;4.244;2023-08-31T19:26:07;14.05;;;5.30;;
27869;SDS011;15225;50.730;4.244;2023-08-31T19:28:34;9.05;;;4.32;;
27869;SDS011;15225;50.730;4.244;2023-08-31T19:31:03;11.48;;;5.00;;
27869;SDS011;15225;50.730;4.244;2023-08-31T19:33:29;11.00;;;4.70;;
27869;SDS011;15225;50.730;4.244;2023-08-31T19:35:55;13.07;;;5.63;;
27869;SDS011;15225;50.730;4.244;2023-08-31T19:38:22;10.75;;;4.68;;
27869;SDS011;15225;50.730;4.244;2023-08-31T19:40:48;9.93;;;4.88;;
27869;SDS011;15225;50.730;4.244;2023-08-31T19:43:15;17.75;;;5.35;;
27869;SDS011;15225;50.730;4.244;2023-08-31T19:45:41;10.68;;;4.72;;
27869;SDS011;15225;50.730;4.244;2023-08-31T19:48:08;12.10;;;4.93;;
27869;SDS011;15225;50.730;4.244;2023-08-31T19:50:35;9.50;;;5.03;;
27869;SDS011;15225;50.730;4.244;2023-08-31T19:53:03;9.23;;;4.60;;
27869;SDS011;15225;50.730;4.244;2023-08-31T19:55:32;14.13;;;4.53;;
27869;SDS011;15225;50.730;4.244;2023-08-31T19:57:59;9.45;;;4.30;;
27869;SDS011;15225;50.730;4.244;2023-08-31T20:00:25;12.60;;;4.47;;
27869;SDS011;15225;50.730;4.244;2023-08-31T20:02:51;13.13;;;4.03;;
27869;SDS011;15225;50.730;4.244;2023-08-31T20:05:18;11.60;;;4.97;;
27869;SDS011;15225;50.730;4.244;2023-08-31T20:07:46;11.43;;;4.18;;
27869;SDS011;15225;50.730;4.244;2023-08-31T20:10:13;12.77;;;4.25;;
27869;SDS011;15225;50.730;4.244;2023-08-31T20:12:41;9.20;;;4.47;;
27869;SDS011;15225;50.730;4.244;2023-08-31T20:15:07;13.43;;;4.35;;
27869;SDS011;15225;50.730;4.244;2023-08-31T20:17:33;11.80;;;5.00;;
27869;SDS011;15225;50.730;4.244;2023-08-31T20:19:59;11.43;;;5.22;;
27869;SDS011;15225;50.730;4.244;2023-08-31T20:22:28;12.13;;;4.28;;
27869;SDS011;15225;50.730;4.244;2023-08-31T20:24:54;15.98;;;5.35;;
27869;SDS011;15225;50.730;4.244;2023-08-31T20:27:20;10.35;;;4.78;;
27869;SDS011;15225;50.730;4.244;2023-08-31T20:29:45;9.45;;;4.93;;
27869;SDS011;15225;50.730;4.244;2023-08-31T20:32:11;12.23;;;5.38;;
27869;SDS011;15225;50.730;4.244;2023-08-31T20:34:37;15.30;;;5.13;;
27869;SDS011;15225;50.730;4.244;2023-08-31T20:37:03;13.73;;;4.93;;
27869;SDS011;15225;50.730;4.244;2023-08-31T20:39:29;12.45;;;4.93;;
27869;SDS011;15225;50.730;4.244;2023-08-31T20:41:57;12.60;;;5.10;;
27869;SDS011;15225;50.730;4.244;2023-08-31T20:44:24;8.77;;;4.68;;
27869;SDS011;15225;50.730;4.244;2023-08-31T20:46:50;11.45;;;4.72;;
27869;SDS011;15225;50.730;4.244;2023-08-31T20:49:16;12.65;;;4.68;;
27869;SDS011;15225;50.730;4.244;2023-08-31T20:51:42;11.48;;;5.07;;
27869;SDS011;15225;50.730;4.244;2023-08-31T20:54:08;9.98;;;4.97;;
27869;SDS011;15225;50.730;4.244;2023-08-31T20:56:38;8.90;;;5.05;;
27869;SDS011;15225;50.730;4.244;2023-08-31T20:59:04;9.27;;;4.55;;
27869;SDS011;15225;50.730;4.244;2023-08-31T21:01:30;10.18;;;4.60;;
27869;SDS011;15225;50.730;4.244;2023-08-31T21:03:57;9.98;;;4.53;;
27869;SDS011;15225;50.730;4.244;2023-08-31T21:06:24;8.77;;;4.10;;
27869;SDS011;15225;50.730;4.244;2023-08-31T21:08:52;8.30;;;4.38;;
27869;SDS011;15225;50.730;4.244;2023-08-31T21:11:19;9.35;;;4.30;;
27869;SDS011;15225;50.730;4.244;2023-08-31T21:13:46;7.70;;;3.90;;
27869;SDS011;15225;50.730;4.244;2023-08-31T21:16:12;10.02;;;4.32;;
27869;SDS011;15225;50.730;4.244;2023-08-31T21:18:38;8.50;;;4.25;;
27869;SDS011;15225;50.730;4.244;2023-08-31T21:21:03;8.40;;;4.10;;
27869;SDS011;15225;50.730;4.244;2023-08-31T21:23:30;10.18;;;4.72;;
27869;SDS011;15225;50.730;4.244;2023-08-31T21:26:01;6.95;;;4.10;;
27869;SDS011;15225;50.730;4.244;2023-08-31T21:28:27;7.80;;;4.15;;
27869;SDS011;15225;50.730;4.244;2023-08-31T21:30:54;8.80;;;3.70;;
